Kasif Kalkavan — V7IX7 — position and weather

sailwx.info

Track history (hours):
 
Tides and Currents Weather Stations Pressure Air Temp Water Temp Dewpoint Dewpoint Depression Visibility Wind Speed Wind Dir Waves Ship Positions

Kasif Kalkavan

Last reported at 2014-Oct-29 07:10 UTC. Time now 2014-Oct-30 15:14 UTC.
Position N 36°50' E 023°32'.

Type: Cargo ship. MMSI: 538090190.

Date/timePositionNaut miles runAvg speedWind from/ knotsBaromVisibWave heightAir tempDewpointWater temp
2014-Oct-29 07:10N 36°50' E 023°32'4015.3
2014-Oct-29 04:33N 37°24' E 023°58'1615.7
2014-Oct-29 03:33N 37°37' E 024°09'1815.6
2014-Oct-29 02:25N 37°49' E 024°25'27614.3
2014-Oct-28 07:08N 40°55' E 028°49'814.4
2014-Oct-28 06:33N 40°59' E 028°59'  
2014-Oct-22 11:32N 43°57' E 034°05'1515.3
2014-Oct-22 10:33N 43°48' E 034°22'1515.2
2014-Oct-22 09:33N 43°40' E 034°40'1515.0
2014-Oct-22 08:33N 43°31' E 034°57'1515.1
2014-Oct-22 07:33N 43°22' E 035°14'1515.0
2014-Oct-22 06:33N 43°14' E 035°31'  
Track history (hours):
 
Tides and Currents Weather Stations Pressure Air Temp Water Temp Dewpoint Dewpoint Depression Visibility Wind Speed Wind Dir Waves Ship Positions

Kasif Kalkavan

Last reported at 2014-Oct-29 07:10 UTC. Time now 2014-Oct-30 15:14 UTC.
Position N 36°50' E 023°32'.

Type: Cargo ship. MMSI: 538090190.

Date/timePositionNaut miles runAvg speedWind from/ knotsBaromVisibWave heightAir tempDewpointWater temp
2014-Oct-29 07:10N 36°50' E 023°32'4015.3
2014-Oct-29 04:33N 37°24' E 023°58'1615.7
2014-Oct-29 03:33N 37°37' E 024°09'1815.6
2014-Oct-29 02:25N 37°49' E 024°25'27614.3
2014-Oct-28 07:08N 40°55' E 028°49'814.4
2014-Oct-28 06:33N 40°59' E 028°59'  
2014-Oct-22 11:32N 43°57' E 034°05'1515.3
2014-Oct-22 10:33N 43°48' E 034°22'1515.2
2014-Oct-22 09:33N 43°40' E 034°40'1515.0
2014-Oct-22 08:33N 43°31' E 034°57'1515.1
2014-Oct-22 07:33N 43°22' E 035°14'1515.0
2014-Oct-22 06:33N 43°14' E 035°31'  

Dump ship's entire track history